Time;durP1;ratioP1;P1;durP2;ratioP2;P2;SDS_P1;SDS_P2;PMS_P1;PMS_P2;Temp;Humidity;BMP_temperature;BMP_pressure;BME280_temperature;BME280_humidity;BME280_pressure;Samples;Min_cycle;Max_cycle;Signal;HPM_P1;HPM_P2
2022/01/23 00:02:19;;;;;;;13.30;6.10;;;5.00;87.90;;;;;;5047997;28;20424;-73
2022/01/23 00:04:45;;;;;;;9.00;4.75;;;5.00;87.80;;;;;;5061627;28;20113;-73
2022/01/23 00:07:13;;;;;;;9.60;5.23;;;5.00;87.80;;;;;;5053303;28;20127;-73
2022/01/23 00:09:39;;;;;;;14.75;5.82;;;5.00;87.90;;;;;;5063574;28;20108;-73
2022/01/23 00:12:12;;;;;;;13.85;6.00;;;4.90;87.90;;;;;;5043887;28;20040;-73
2022/01/23 00:17:23;;;;;;;13.70;5.47;;;4.90;87.80;;;;;;5078689;28;20483;-73
2022/01/23 00:19:52;;;;;;;13.73;4.72;;;4.90;87.90;;;;;;5050437;28;20055;-73
2022/01/23 00:22:21;;;;;;;11.88;5.20;;;4.90;88.00;;;;;;5063710;28;20067;-72
2022/01/23 00:32:45;;;;;;;13.70;5.25;;;4.80;88.00;;;;;;5055560;28;20044;-72
2022/01/23 00:35:11;;;;;;;17.07;6.57;;;4.80;87.90;;;;;;5063622;28;20047;-72
2022/01/23 00:37:36;;;;;;;10.77;5.00;;;4.80;88.00;;;;;;5052454;28;20047;-72
2022/01/23 00:40:04;;;;;;;10.43;5.50;;;4.80;88.10;;;;;;5062213;28;20094;-73
2022/01/23 00:42:29;;;;;;;13.75;5.38;;;4.80;88.00;;;;;;5040615;28;20485;-73
2022/01/23 00:45:06;;;;;;;11.60;5.13;;;4.80;88.00;;;;;;5044789;28;20043;-73
2022/01/23 00:47:33;;;;;;;12.70;6.25;;;4.80;88.00;;;;;;5042153;28;20117;-72
2022/01/23 00:49:59;;;;;;;14.90;6.25;;;4.80;88.10;;;;;;5016606;28;20044;-72
2022/01/23 00:52:25;;;;;;;10.37;5.40;;;4.80;88.20;;;;;;5043222;28;20063;-72
2022/01/23 00:54:50;;;;;;;15.87;6.27;;;4.80;88.20;;;;;;5057678;28;20500;-72
2022/01/23 00:57:16;;;;;;;16.30;5.73;;;4.80;88.20;;;;;;5037700;28;20102;-73
2022/01/23 00:59:42;;;;;;;12.10;4.93;;;4.80;88.20;;;;;;5047389;28;20044;-72
2022/01/23 01:02:08;;;;;;;7.87;4.37;;;4.80;88.20;;;;;;5042581;28;20040;-72
2022/01/23 01:04:34;;;;;;;9.70;4.20;;;4.80;88.30;;;;;;5062168;28;20072;-72
2022/01/23 01:06:59;;;;;;;10.57;4.57;;;4.70;88.10;;;;;;5039148;28;20370;-72
2022/01/23 01:09:25;;;;;;;6.77;3.27;;;4.70;88.30;;;;;;5053763;28;20340;-72
2022/01/23 01:12:04;;;;;;;16.50;5.20;;;4.70;88.20;;;;;;5053170;28;20043;-73
2022/01/23 01:17:04;;;;;;;20.65;5.30;;;4.60;88.20;;;;;;5066256;28;20040;-73
2022/01/23 01:33:21;;;;;;;16.08;5.78;;;4.60;88.40;;;;;;5055803;28;20083;-72
2022/01/23 01:38:15;;;;;;;16.30;5.90;;;4.60;88.50;;;;;;5067095;28;20389;-72
2022/01/23 01:40:41;;;;;;;12.77;4.83;;;4.60;88.50;;;;;;5040202;28;20037;-72
2022/01/23 01:43:07;;;;;;;14.80;6.10;;;4.60;88.50;;;;;;5051900;28;20032;-73
2022/01/23 01:45:34;;;;;;;13.60;6.07;;;4.60;88.50;;;;;;5064803;28;20044;-73
2022/01/23 01:48:02;;;;;;;16.27;5.47;;;4.60;88.50;;;;;;5059719;28;20043;-73
2022/01/23 01:50:30;;;;;;;11.82;4.57;;;4.60;88.50;;;;;;5061864;28;20054;-73
2022/01/23 01:52:56;;;;;;;16.85;5.35;;;4.60;88.50;;;;;;5044238;28;20068;-73
2022/01/23 01:55:36;;;;;;;13.10;4.87;;;4.60;88.50;;;;;;5041570;28;20416;-72
2022/01/23 01:58:03;;;;;;;19.52;5.57;;;4.60;88.60;;;;;;5063980;28;20492;-73
2022/01/23 02:08:29;;;;;;;10.25;3.30;;;4.50;88.50;;;;;;5057002;28;20128;-73
2022/01/23 02:11:02;;;;;;;8.77;3.70;;;4.40;88.60;;;;;;5063099;28;20032;-73
2022/01/23 02:13:35;;;;;;;8.63;3.83;;;4.40;88.60;;;;;;5058845;28;20032;-72
2022/01/23 02:56:46;;;;;;;7.63;3.17;;;4.40;88.70;;;;;;5047806;28;20040;-72
2022/01/23 02:59:25;;;;;;;10.68;3.03;;;4.40;88.80;;;;;;5059335;28;20047;-73
2022/01/23 03:02:11;;;;;;;8.68;2.58;;;4.40;88.70;;;;;;5064788;28;20055;-73
2022/01/23 03:04:41;;;;;;;8.75;3.05;;;4.40;88.70;;;;;;5064254;28;20044;-73
2022/01/23 03:07:37;;;;;;;9.60;2.95;;;4.40;88.70;;;;;;5056123;28;20051;-73
2022/01/23 03:10:16;;;;;;;6.95;2.83;;;4.40;88.80;;;;;;5040685;28;20040;-73
2022/01/23 03:13:26;;;;;;;7.25;3.10;;;4.30;88.80;;;;;;5044559;28;20382;-73
2022/01/23 03:26:30;;;;;;;7.30;2.60;;;4.30;88.80;;;;;;5063845;28;20032;-73
2022/01/23 03:29:18;;;;;;;4.72;2.47;;;4.20;88.60;;;;;;5043550;28;20087;-73
2022/01/23 03:34:07;;;;;;;6.17;2.47;;;4.30;88.80;;;;;;5059522;28;20288;-73
2022/01/23 03:36:33;;;;;;;5.93;2.90;;;4.30;88.70;;;;;;5047310;28;20055;-73
2022/01/23 03:38:59;;;;;;;10.65;3.03;;;4.30;88.80;;;;;;5065006;28;20131;-73
2022/01/23 03:41:25;;;;;;;7.83;2.93;;;4.30;88.90;;;;;;5043349;28;20036;-73
2022/01/23 03:43:51;;;;;;;4.13;2.40;;;4.30;88.90;;;;;;5018886;28;20043;-73
2022/01/23 03:51:17;;;;;;;12.45;3.72;;;4.40;88.80;;;;;;5066610;28;20092;-74
2022/01/23 03:53:42;;;;;;;5.90;2.55;;;4.40;88.90;;;;;;5040509;28;20431;-73
2022/01/23 03:56:08;;;;;;;8.20;2.70;;;4.40;88.90;;;;;;5045908;28;20063;-73
2022/01/23 03:58:35;;;;;;;5.33;2.40;;;4.40;88.90;;;;;;5049459;28;20294;-73
2022/01/23 04:01:01;;;;;;;7.15;3.17;;;4.40;88.80;;;;;;5029460;28;20045;-73
2022/01/23 04:03:27;;;;;;;4.45;2.40;;;4.40;88.90;;;;;;5062317;28;20480;-73
2022/01/23 04:05:53;;;;;;;7.32;2.70;;;4.40;88.70;;;;;;5030709;28;20124;-73
2022/01/23 04:08:20;;;;;;;11.90;3.80;;;4.40;88.80;;;;;;5056411;28;20545;-73
2022/01/23 04:10:46;;;;;;;11.85;3.88;;;4.40;88.80;;;;;;5069924;28;20502;-73
2022/01/23 04:13:21;;;;;;;4.80;2.85;;;4.40;88.80;;;;;;5046059;28;20068;-73
2022/01/23 04:32:42;;;;;;;7.47;3.70;;;4.30;88.90;;;;;;5042922;28;20090;-73
2022/01/23 04:46:47;;;;;;;10.02;3.47;;;4.00;88.90;;;;;;5033557;28;20056;-73
2022/01/23 04:59:33;;;;;;;19.63;5.47;;;4.00;88.90;;;;;;5063897;28;20044;-73
2022/01/23 04:59:54;;;;;;;28.35;5.07;;;3.80;88.90;;;;;;5042090;28;20156;-73
2022/01/23 05:04:46;;;;;;;5.70;3.40;;;3.70;88.90;;;;;;5064523;28;20041;-73
2022/01/23 05:07:14;;;;;;;49.17;5.45;;;3.70;88.90;;;;;;5056747;28;20080;-73
2022/01/23 05:09:40;;;;;;;24.27;4.63;;;3.60;88.90;;;;;;5041367;28;20447;-73
2022/01/23 05:12:10;;;;;;;113.03;9.77;;;3.60;88.90;;;;;;5048580;28;20268;-73
2022/01/23 05:14:41;;;;;;;38.22;4.47;;;3.60;89.00;;;;;;5043198;28;20036;-73
2022/01/23 05:17:10;;;;;;;26.15;4.57;;;3.60;89.00;;;;;;5054752;28;20036;-73
2022/01/23 05:19:38;;;;;;;23.63;3.60;;;3.60;88.90;;;;;;5052223;28;20047;-73
2022/01/23 05:24:41;;;;;;;58.05;5.85;;;3.50;89.00;;;;;;5068583;28;20059;-73
2022/01/23 05:27:10;;;;;;;9.13;3.75;;;3.50;88.90;;;;;;5046942;28;20040;-73
2022/01/23 05:29:36;;;;;;;10.25;4.00;;;3.60;89.00;;;;;;5031646;28;20048;-73
2022/01/23 05:32:04;;;;;;;5.75;3.00;;;3.60;88.90;;;;;;5043717;28;20044;-73
2022/01/23 05:34:30;;;;;;;6.15;3.72;;;3.60;89.00;;;;;;5077812;28;20032;-73
2022/01/23 05:36:57;;;;;;;7.78;4.20;;;3.60;89.10;;;;;;5036210;28;20409;-73
2022/01/23 05:39:25;;;;;;;10.30;4.65;;;3.60;89.10;;;;;;5050385;28;20047;-73
2022/01/23 05:41:57;;;;;;;8.70;3.97;;;3.70;89.10;;;;;;5040314;28;20132;-73
2022/01/23 05:44:23;;;;;;;11.95;5.00;;;3.70;89.20;;;;;;5042945;28;20036;-73
2022/01/23 05:46:49;;;;;;;12.57;5.50;;;3.70;89.10;;;;;;5056334;28;20036;-73
2022/01/23 05:49:15;;;;;;;8.30;4.10;;;3.80;89.10;;;;;;5042095;28;20043;-73
2022/01/23 05:51:41;;;;;;;6.60;3.33;;;3.80;89.20;;;;;;5046996;28;20102;-73
2022/01/23 05:54:07;;;;;;;9.30;4.23;;;3.80;89.10;;;;;;5039528;28;20068;-73
2022/01/23 05:56:32;;;;;;;6.53;3.70;;;3.90;89.20;;;;;;5038751;28;20346;-73
2022/01/23 05:58:58;;;;;;;11.30;4.80;;;3.90;89.10;;;;;;5038534;28;20515;-73
2022/01/23 06:01:24;;;;;;;6.47;4.00;;;3.90;89.20;;;;;;5042936;28;20157;-73
2022/01/23 06:03:50;;;;;;;5.53;3.60;;;4.00;89.30;;;;;;5065186;28;20044;-73
2022/01/23 06:06:15;;;;;;;7.90;3.50;;;4.00;89.20;;;;;;5043448;28;20039;-73
2022/01/23 06:08:42;;;;;;;10.80;4.70;;;4.00;89.30;;;;;;5053434;28;20056;-73
2022/01/23 06:11:08;;;;;;;8.05;3.47;;;4.00;89.30;;;;;;5046649;28;20052;-73
2022/01/23 06:13:34;;;;;;;8.37;4.03;;;4.10;89.30;;;;;;5047384;28;20037;-73
2022/01/23 06:16:00;;;;;;;9.60;4.23;;;4.10;89.30;;;;;;5062218;28;20051;-73
2022/01/23 06:18:26;;;;;;;6.47;3.63;;;4.10;89.20;;;;;;5070268;28;20044;-73
2022/01/23 06:20:52;;;;;;;6.93;3.40;;;4.10;89.30;;;;;;5066334;28;20052;-73
2022/01/23 06:23:18;;;;;;;7.93;3.63;;;4.10;89.20;;;;;;5033363;28;20045;-73
2022/01/23 06:25:45;;;;;;;10.35;3.75;;;4.10;89.20;;;;;;5047804;28;20045;-73
2022/01/23 06:28:21;;;;;;;6.60;3.40;;;4.10;89.30;;;;;;5047569;28;20043;-73
2022/01/23 06:30:47;;;;;;;6.18;2.83;;;4.20;89.20;;;;;;5054779;28;20051;-73
2022/01/23 06:33:12;;;;;;;5.37;2.80;;;4.20;89.30;;;;;;5039414;28;20040;-73
2022/01/23 06:35:38;;;;;;;5.83;2.90;;;4.20;89.20;;;;;;5047267;28;20072;-73
2022/01/23 06:38:04;;;;;;;5.57;3.20;;;4.20;89.30;;;;;;5041715;28;20040;-73
2022/01/23 06:40:29;;;;;;;7.70;2.90;;;4.20;89.30;;;;;;5048663;28;20177;-73
2022/01/23 06:42:55;;;;;;;5.23;3.30;;;4.20;89.20;;;;;;5034736;28;20515;-73
2022/01/23 06:45:21;;;;;;;7.73;3.07;;;4.20;89.20;;;;;;5042584;28;20572;-73
2022/01/23 06:47:47;;;;;;;6.07;3.33;;;4.20;89.30;;;;;;5060867;28;20032;-73
2022/01/23 06:50:12;;;;;;;6.03;4.23;;;4.30;89.20;;;;;;5039892;28;20408;-73
2022/01/23 06:52:38;;;;;;;5.07;3.57;;;4.30;89.20;;;;;;5067133;28;20577;-73
2022/01/23 06:55:04;;;;;;;5.67;4.33;;;4.30;89.20;;;;;;5041782;28;20051;-73
2022/01/23 06:57:30;;;;;;;5.15;3.95;;;4.30;89.30;;;;;;5040958;28;20127;-73
2022/01/23 06:59:56;;;;;;;4.90;2.60;;;4.30;89.30;;;;;;5026643;28;20571;-73
2022/01/23 07:02:21;;;;;;;4.70;3.43;;;4.30;89.20;;;;;;5035639;28;20076;-73
2022/01/23 07:04:48;;;;;;;5.95;3.28;;;4.30;89.30;;;;;;5027872;28;20093;-73
2022/01/23 07:07:14;;;;;;;4.97;3.43;;;4.30;89.10;;;;;;5038714;28;20041;-73
2022/01/23 07:09:40;;;;;;;7.27;3.23;;;4.30;89.20;;;;;;5071318;28;20060;-73
2022/01/23 07:12:06;;;;;;;5.60;3.23;;;4.30;89.20;;;;;;5041523;28;20040;-73
2022/01/23 07:14:32;;;;;;;5.80;3.53;;;4.30;89.30;;;;;;5042335;28;20040;-73
2022/01/23 07:16:57;;;;;;;5.87;3.30;;;4.40;89.30;;;;;;5041739;28;20329;-73
2022/01/23 07:19:23;;;;;;;5.97;3.20;;;4.40;89.30;;;;;;5037566;28;20528;-73
2022/01/23 07:21:49;;;;;;;6.43;3.23;;;4.40;89.20;;;;;;5071402;28;20043;-73
2022/01/23 07:24:15;;;;;;;7.63;3.90;;;4.40;89.20;;;;;;5038166;28;20131;-73
2022/01/23 07:26:40;;;;;;;7.17;3.50;;;4.40;89.30;;;;;;5046289;28;20068;-73
2022/01/23 07:29:07;;;;;;;5.93;3.10;;;4.40;89.30;;;;;;5047455;28;20531;-73
2022/01/23 07:34:01;;;;;;;4.37;2.97;;;4.40;89.30;;;;;;5059924;28;20044;-73
2022/01/23 07:36:28;;;;;;;5.03;3.38;;;4.40;89.20;;;;;;5058965;28;20037;-73
2022/01/23 07:38:54;;;;;;;5.55;3.22;;;4.40;89.20;;;;;;5039965;28;20457;-74
2022/01/23 07:41:20;;;;;;;7.47;3.83;;;4.40;89.20;;;;;;5057662;28;20383;-73
2022/01/23 07:43:45;;;;;;;7.33;4.20;;;4.40;89.10;;;;;;5041803;28;20037;-72
2022/01/23 07:46:11;;;;;;;8.23;4.83;;;4.40;89.20;;;;;;5042725;28;20340;-72
2022/01/23 07:48:37;;;;;;;9.17;4.50;;;4.40;89.20;;;;;;5068362;28;20031;-72
2022/01/23 07:51:03;;;;;;;11.13;4.80;;;4.50;89.20;;;;;;5035188;28;20080;-73
2022/01/23 07:53:28;;;;;;;8.20;4.50;;;4.50;89.20;;;;;;5016970;28;20048;-73
2022/01/23 07:55:54;;;;;;;8.90;4.93;;;4.50;89.20;;;;;;5043611;28;20055;-73
2022/01/23 07:58:20;;;;;;;12.63;5.77;;;4.50;89.20;;;;;;5013821;28;20364;-73
2022/01/23 08:00:47;;;;;;;7.73;4.10;;;4.50;89.20;;;;;;5029425;28;20060;-73
2022/01/23 08:03:13;;;;;;;8.80;5.13;;;4.50;89.30;;;;;;5054885;28;20109;-73
2022/01/23 08:05:40;;;;;;;7.78;4.45;;;4.50;89.30;;;;;;5038496;28;20116;-72
2022/01/23 08:08:05;;;;;;;10.95;4.93;;;4.50;89.30;;;;;;5055167;28;20377;-72
2022/01/23 08:10:32;;;;;;;10.03;4.33;;;4.50;89.20;;;;;;5037728;28;20056;-72
2022/01/23 08:12:58;;;;;;;9.52;4.70;;;4.60;89.30;;;;;;5054713;28;20321;-72
2022/01/23 08:15:24;;;;;;;8.03;4.73;;;4.60;89.20;;;;;;5054120;28;20091;-72
2022/01/23 08:17:50;;;;;;;13.75;6.22;;;4.60;89.20;;;;;;5037754;28;20036;-72
2022/01/23 08:20:16;;;;;;;13.07;5.47;;;4.60;89.20;;;;;;5046684;28;20094;-72
2022/01/23 08:22:41;;;;;;;8.33;5.20;;;4.60;89.20;;;;;;5055566;28;20110;-73
2022/01/23 08:25:08;;;;;;;9.77;4.93;;;4.70;89.10;;;;;;5042856;28;20071;-72
2022/01/23 08:27:34;;;;;;;8.90;5.10;;;4.70;89.30;;;;;;5065600;28;20492;-73
2022/01/23 08:30:02;;;;;;;10.43;4.68;;;4.70;89.20;;;;;;5056651;28;20512;-73
2022/01/23 08:32:28;;;;;;;12.30;5.68;;;4.70;89.20;;;;;;5041088;28;20051;-73
2022/01/23 08:34:54;;;;;;;14.00;5.70;;;4.70;89.20;;;;;;5054467;28;20501;-72
2022/01/23 08:37:20;;;;;;;13.20;5.63;;;4.80;89.30;;;;;;5063214;28;20519;-72
2022/01/23 08:39:46;;;;;;;13.10;5.43;;;4.80;89.20;;;;;;5046091;28;20085;-72
2022/01/23 08:42:15;;;;;;;16.67;6.80;;;4.80;89.20;;;;;;5066785;28;20032;-72
2022/01/23 08:44:42;;;;;;;15.70;6.57;;;4.80;89.30;;;;;;5037811;28;20045;-72
2022/01/23 08:47:08;;;;;;;10.77;5.30;;;4.80;89.20;;;;;;5059234;28;20101;-72
2022/01/23 08:49:39;;;;;;;17.93;6.93;;;4.80;89.30;;;;;;5026361;28;20572;-73
2022/01/23 08:52:05;;;;;;;12.50;5.75;;;4.90;89.30;;;;;;5053156;28;20049;-73
2022/01/23 08:54:31;;;;;;;17.03;7.47;;;4.90;89.30;;;;;;5053516;28;20511;-72
2022/01/23 08:56:57;;;;;;;17.87;7.17;;;4.90;89.20;;;;;;5044411;28;20070;-72
2022/01/23 08:59:24;;;;;;;16.07;7.20;;;4.90;89.10;;;;;;5068221;28;20074;-72
2022/01/23 09:01:50;;;;;;;23.33;7.47;;;4.90;89.20;;;;;;5041479;28;20051;-72
2022/01/23 09:04:16;;;;;;;17.67;7.33;;;4.90;89.10;;;;;;5051249;28;20383;-72
2022/01/23 09:06:46;;;;;;;25.27;8.32;;;5.00;89.20;;;;;;5046523;28;20100;-73
2022/01/23 09:09:19;;;;;;;23.92;7.28;;;5.00;89.30;;;;;;5052137;28;20090;-72
2022/01/23 09:11:58;;;;;;;18.75;7.68;;;5.00;89.10;;;;;;5064627;28;20037;-72
2022/01/23 09:14:24;;;;;;;16.85;7.05;;;5.00;89.20;;;;;;5046218;28;20150;-72
2022/01/23 09:16:52;;;;;;;12.90;6.30;;;5.10;89.10;;;;;;5051313;28;20532;-72
2022/01/23 09:19:19;;;;;;;16.85;6.95;;;5.10;89.20;;;;;;5044730;28;20498;-72
2022/01/23 09:21:46;;;;;;;13.25;6.75;;;5.10;89.10;;;;;;5045149;28;20040;-72
2022/01/23 09:24:12;;;;;;;19.27;6.82;;;5.20;89.10;;;;;;5036867;28;20059;-72
2022/01/23 09:26:38;;;;;;;12.43;5.90;;;5.20;89.20;;;;;;5055805;28;20486;-72
2022/01/23 09:29:13;;;;;;;11.63;6.10;;;5.30;89.20;;;;;;5067009;28;20278;-72
2022/01/23 09:32:12;;;;;;;;;;;5.30;89.10;;;;;;5051132;28;20036;-72
2022/01/23 09:34:32;;;;;;;13.40;6.30;;;5.30;89.00;;;;;;5059166;28;19920;-72
2022/01/23 09:37:07;;;;;;;10.55;5.30;;;5.40;89.10;;;;;;5033074;28;20512;-72
2022/01/23 09:39:34;;;;;;;11.80;5.68;;;5.40;89.10;;;;;;5062869;28;20044;-72
2022/01/23 09:42:15;;;;;;;12.20;5.45;;;5.40;89.00;;;;;;5061319;28;20067;-72
2022/01/23 09:44:47;;;;;;;14.15;5.90;;;5.50;89.00;;;;;;5053493;28;20080;-72
2022/01/23 09:47:15;;;;;;;15.70;6.20;;;5.50;89.00;;;;;;5068191;28;20127;-72
2022/01/23 09:49:42;;;;;;;12.13;5.72;;;5.50;89.00;;;;;;5033534;28;20040;-72
2022/01/23 09:52:10;;;;;;;11.15;5.03;;;5.50;88.90;;;;;;5037938;28;20578;-72
2022/01/23 09:54:42;;;;;;;11.00;5.57;;;5.60;88.80;;;;;;5048824;28;20146;-72
2022/01/23 09:57:09;;;;;;;14.23;6.15;;;5.60;88.70;;;;;;5058615;28;20045;-72
2022/01/23 09:59:35;;;;;;;11.65;5.40;;;5.60;88.80;;;;;;5025238;28;20072;-72
2022/01/23 10:02:03;;;;;;;11.85;5.85;;;5.60;88.60;;;;;;5039736;28;20075;-73
2022/01/23 10:04:30;;;;;;;10.40;5.60;;;5.60;88.40;;;;;;5043159;28;20044;-73
2022/01/23 10:06:56;;;;;;;13.63;5.97;;;5.60;88.50;;;;;;5064883;28;20154;-72
2022/01/23 10:09:24;;;;;;;14.07;6.10;;;5.60;88.50;;;;;;5052740;28;20136;-72
2022/01/23 10:11:50;;;;;;;11.80;5.70;;;5.70;88.50;;;;;;5037299;28;20076;-72
2022/01/23 10:14:20;;;;;;;13.10;6.20;;;5.70;88.50;;;;;;5040520;28;20044;-72
2022/01/23 10:16:47;;;;;;;13.20;6.03;;;5.70;88.40;;;;;;5040106;28;20463;-72
2022/01/23 10:19:15;;;;;;;12.25;5.38;;;5.70;88.40;;;;;;5047349;28;20040;-72
2022/01/23 10:21:43;;;;;;;11.05;5.60;;;5.70;88.40;;;;;;5041556;28;20478;-72
2022/01/23 10:24:13;;;;;;;11.30;5.32;;;5.70;88.30;;;;;;5040337;28;20106;-72
2022/01/23 10:26:51;;;;;;;10.15;5.40;;;5.70;88.20;;;;;;5050672;28;20050;-72
2022/01/23 10:29:25;;;;;;;10.07;5.32;;;5.80;88.30;;;;;;5049973;28;20052;-72
2022/01/23 10:32:18;;;;;;;10.70;5.65;;;5.80;88.20;;;;;;5048671;28;20344;-72
2022/01/23 10:34:48;;;;;;;13.20;5.53;;;5.80;88.20;;;;;;5052295;28;20071;-72
2022/01/23 10:37:30;;;;;;;11.65;5.10;;;5.80;88.10;;;;;;5049180;28;20478;-73
2022/01/23 10:39:57;;;;;;;11.45;5.10;;;5.90;88.00;;;;;;5040910;28;20054;-72
2022/01/23 10:47:59;;;;;;;10.07;4.85;;;6.00;87.90;;;;;;5055976;28;20079;-72
2022/01/23 10:50:25;;;;;;;11.85;4.95;;;6.00;87.90;;;;;;5040811;28;20047;-72
2022/01/23 10:52:53;;;;;;;11.23;5.25;;;6.10;87.80;;;;;;5044228;28;20048;-72
2022/01/23 10:55:22;;;;;;;9.52;5.43;;;6.10;87.50;;;;;;5052576;28;20051;-72
2022/01/23 10:57:51;;;;;;;11.75;5.35;;;6.10;87.40;;;;;;5032812;28;20036;-73
2022/01/23 11:00:32;;;;;;;9.27;4.68;;;6.10;87.30;;;;;;5052023;28;20260;-72
2022/01/23 11:03:11;;;;;;;9.57;4.75;;;6.10;87.40;;;;;;5055281;28;20051;-72
2022/01/23 11:05:41;;;;;;;9.10;4.28;;;6.10;87.10;;;;;;5057799;28;20473;-72
2022/01/23 11:08:28;;;;;;;10.80;5.22;;;6.10;87.10;;;;;;5051966;28;20396;-72
2022/01/23 11:10:54;;;;;;;10.07;5.03;;;6.10;86.80;;;;;;5039377;28;20044;-72
2022/01/23 11:19:30;;;;;;;8.20;3.88;;;6.10;86.90;;;;;;5052287;28;20196;-72
2022/01/23 11:21:59;;;;;;;7.05;3.42;;;6.10;86.90;;;;;;5045868;28;20137;-72
2022/01/23 11:24:41;;;;;;;6.50;3.25;;;6.20;86.90;;;;;;5032911;28;20040;-72
2022/01/23 11:27:08;;;;;;;8.65;3.05;;;6.20;86.90;;;;;;5035147;28;20495;-72
2022/01/23 11:29:34;;;;;;;10.18;4.00;;;6.20;86.80;;;;;;5063275;28;20071;-72
2022/01/23 11:32:00;;;;;;;7.32;3.28;;;6.20;86.90;;;;;;5045848;28;20137;-72
2022/01/23 11:34:29;;;;;;;8.93;3.73;;;6.20;86.60;;;;;;5042246;28;20075;-72
2022/01/23 11:36:55;;;;;;;10.45;3.90;;;6.30;86.70;;;;;;5073700;28;20412;-72
2022/01/23 11:40:10;;;;;;;8.77;3.70;;;6.30;86.50;;;;;;5047135;28;20036;-72
2022/01/23 11:56:27;;;;;;;7.20;3.80;;;6.40;86.30;;;;;;5050278;28;20133;-72
2022/01/23 11:59:24;;;;;;;7.57;3.83;;;6.40;86.10;;;;;;5049944;28;20078;-72
2022/01/23 12:02:14;;;;;;;;;;;6.50;86.20;;;;;;5055883;28;20052;-72
2022/01/23 12:05:00;;;;;;;6.55;3.40;;;6.50;85.40;;;;;;5052609;28;19916;-72
2022/01/23 12:07:26;;;;;;;9.40;4.05;;;6.50;85.80;;;;;;5061685;28;20047;-72
2022/01/23 12:10:36;;;;;;;10.00;3.93;;;6.50;85.50;;;;;;5034093;28;20052;-72
2022/01/23 12:13:33;;;;;;;7.00;3.55;;;6.50;85.60;;;;;;5041158;28;20139;-72
2022/01/23 12:18:43;;;;;;;9.43;3.83;;;6.50;84.90;;;;;;5062185;28;20516;-72
2022/01/23 12:21:27;;;;;;;9.33;3.93;;;6.50;85.30;;;;;;5036351;28;20043;-72
2022/01/23 12:24:01;;;;;;;5.40;3.22;;;6.60;85.50;;;;;;5053977;28;20044;-72
2022/01/23 12:26:27;;;;;;;6.05;3.38;;;6.60;85.60;;;;;;5056033;28;20926;-72
2022/01/23 12:28:53;;;;;;;7.57;3.60;;;6.60;85.30;;;;;;5034307;28;20098;-72
2022/01/23 12:31:23;;;;;;;8.17;3.27;;;6.60;85.20;;;;;;5058538;28;20048;-72
2022/01/23 12:33:56;;;;;;;8.73;4.20;;;6.60;84.80;;;;;;5054520;28;20051;-72
2022/01/23 12:36:23;;;;;;;8.70;3.95;;;6.60;84.60;;;;;;5038961;28;20491;-72
2022/01/23 12:38:53;;;;;;;7.10;3.50;;;6.60;84.60;;;;;;5037287;28;20471;-72
2022/01/23 12:41:34;;;;;;;9.18;3.80;;;6.70;84.90;;;;;;5048570;28;20512;-72
2022/01/23 12:44:08;;;;;;;6.63;3.47;;;6.70;84.70;;;;;;5056564;28;20039;-72
2022/01/23 12:46:48;;;;;;;5.47;3.15;;;6.70;84.50;;;;;;5055179;28;20403;-72
2022/01/23 12:49:30;;;;;;;9.00;3.90;;;6.70;83.90;;;;;;5057440;28;20050;-72
2022/01/23 12:52:08;;;;;;;5.75;3.55;;;6.70;84.00;;;;;;5057120;28;20063;-72
2022/01/23 12:54:46;;;;;;;5.82;3.83;;;6.70;84.40;;;;;;5038349;28;20052;-72
2022/01/23 12:57:42;;;;;;;5.97;3.63;;;6.70;84.00;;;;;;5053995;28;20040;-72
2022/01/23 13:00:21;;;;;;;7.45;3.78;;;6.70;83.60;;;;;;5038103;28;20109;-72
2022/01/23 13:02:50;;;;;;;6.80;3.90;;;6.70;83.30;;;;;;5049679;28;20067;-72
2022/01/23 13:05:17;;;;;;;6.00;3.50;;;6.70;83.30;;;;;;5039707;28;20039;-72
2022/01/23 13:08:06;;;;;;;6.53;3.60;;;6.70;83.00;;;;;;5043936;28;20041;-72
2022/01/23 13:32:06;;;;;;;8.00;3.92;;;6.70;82.00;;;;;;5057669;28;20089;-72
2022/01/23 13:34:35;;;;;;;6.70;3.53;;;6.70;82.30;;;;;;5049742;28;20142;-72
2022/01/23 13:37:05;;;;;;;5.03;3.03;;;6.70;82.10;;;;;;5065585;28;20046;-72
2022/01/23 13:39:48;;;;;;;7.20;3.55;;;6.70;82.10;;;;;;5051746;28;20052;-72
2022/01/23 14:04:23;;;;;;;6.13;3.15;;;6.60;82.30;;;;;;5045918;28;20536;-73
2022/01/23 14:06:49;;;;;;;4.53;3.03;;;6.60;82.60;;;;;;5069307;28;20044;-73
2022/01/23 14:09:16;;;;;;;5.65;3.30;;;6.60;82.40;;;;;;5056629;28;20420;-73
2022/01/23 14:11:44;;;;;;;6.22;2.95;;;6.60;82.50;;;;;;5063259;28;20097;-72
2022/01/23 14:14:18;;;;;;;5.50;3.15;;;6.60;82.50;;;;;;5056902;28;20032;-72
2022/01/23 14:16:48;;;;;;;6.00;3.25;;;6.60;82.40;;;;;;5060419;28;20024;-72
2022/01/23 14:19:18;;;;;;;5.57;3.20;;;6.50;82.50;;;;;;5037484;28;20611;-72
2022/01/23 14:21:50;;;;;;;6.10;3.10;;;6.50;82.40;;;;;;5058109;28;20029;-72
2022/01/23 14:24:29;;;;;;;5.05;3.25;;;6.50;82.30;;;;;;5036543;28;20044;-72
2022/01/23 14:27:00;;;;;;;4.95;3.35;;;6.40;82.70;;;;;;5058475;28;20067;-72
2022/01/23 14:29:27;;;;;;;6.65;3.47;;;6.40;82.50;;;;;;5052349;28;20040;-72
2022/01/23 14:32:20;;;;;;;7.35;3.50;;;6.40;82.40;;;;;;5063349;28;20504;-72
2022/01/23 14:34:46;;;;;;;7.30;3.30;;;6.30;82.70;;;;;;5041825;28;20077;-72
2022/01/23 14:37:12;;;;;;;7.45;3.40;;;6.30;82.50;;;;;;5062175;28;20067;-72
2022/01/23 14:39:39;;;;;;;5.03;3.08;;;6.20;82.60;;;;;;5036295;28;20486;-72
2022/01/23 14:42:18;;;;;;;6.30;3.97;;;6.20;82.40;;;;;;5061561;28;20036;-72
2022/01/23 14:44:44;;;;;;;6.68;3.15;;;6.20;82.70;;;;;;5042000;28;20040;-72
2022/01/23 14:47:11;;;;;;;6.78;3.33;;;6.20;82.50;;;;;;5030941;28;20036;-72
2022/01/23 14:49:38;;;;;;;7.47;3.58;;;6.10;82.70;;;;;;5058769;28;20485;-72
2022/01/23 14:52:10;;;;;;;6.10;3.10;;;6.10;82.90;;;;;;5037261;28;20052;-72
2022/01/23 14:54:37;;;;;;;6.15;3.58;;;6.10;82.80;;;;;;5068761;28;20539;-72
2022/01/23 14:57:05;;;;;;;7.15;3.33;;;6.10;82.90;;;;;;5060672;28;20036;-72
2022/01/23 14:59:33;;;;;;;8.40;3.70;;;6.10;82.80;;;;;;5043234;28;20048;-72
2022/01/23 15:02:00;;;;;;;7.40;3.60;;;6.00;82.80;;;;;;5039373;28;20217;-72
2022/01/23 15:04:26;;;;;;;5.75;3.53;;;6.00;83.00;;;;;;5044890;28;20409;-72
2022/01/23 15:06:52;;;;;;;6.77;3.73;;;6.00;82.80;;;;;;5056737;28;20044;-72
2022/01/23 15:09:20;;;;;;;7.82;3.97;;;5.90;82.90;;;;;;5056408;28;20080;-72
2022/01/23 15:11:47;;;;;;;5.57;3.63;;;5.90;83.00;;;;;;5055276;28;20052;-72
2022/01/23 15:14:13;;;;;;;6.75;4.20;;;5.90;82.90;;;;;;5037780;28;20396;-72
2022/01/23 15:16:40;;;;;;;6.43;3.83;;;5.80;82.80;;;;;;5031367;28;20041;-72
2022/01/23 15:19:07;;;;;;;7.75;3.28;;;5.80;83.00;;;;;;5041039;28;20040;-72
2022/01/23 15:21:34;;;;;;;8.85;3.65;;;5.80;83.30;;;;;;5028416;28;20056;-72
2022/01/23 15:24:01;;;;;;;6.47;4.00;;;5.80;83.30;;;;;;5069134;28;20500;-72
2022/01/23 15:26:30;;;;;;;6.38;4.35;;;5.80;83.40;;;;;;5047186;28;20051;-72
2022/01/23 15:28:56;;;;;;;8.90;4.45;;;5.80;83.60;;;;;;5047299;28;20047;-72
2022/01/23 15:31:23;;;;;;;6.73;4.03;;;5.80;83.50;;;;;;5037631;28;20060;-72
2022/01/23 15:33:48;;;;;;;7.65;4.55;;;5.70;83.20;;;;;;5056854;28;20119;-72
2022/01/23 15:36:14;;;;;;;5.73;3.80;;;5.70;83.60;;;;;;5044816;28;20099;-72
2022/01/23 15:38:43;;;;;;;7.23;4.73;;;5.70;83.30;;;;;;5034495;28;20040;-72
2022/01/23 15:41:10;;;;;;;8.68;4.40;;;5.70;83.60;;;;;;5035272;28;20086;-72
2022/01/23 15:43:36;;;;;;;8.55;4.40;;;5.60;83.60;;;;;;5044252;28;20029;-72
2022/01/23 15:46:03;;;;;;;10.50;4.87;;;5.60;83.70;;;;;;5055570;28;20036;-72
2022/01/23 15:48:30;;;;;;;11.10;7.05;;;5.60;83.70;;;;;;5059434;28;20509;-72
2022/01/23 15:51:00;;;;;;;7.80;5.18;;;5.60;83.60;;;;;;5044030;28;20048;-72
2022/01/23 15:53:26;;;;;;;9.63;6.20;;;5.60;83.60;;;;;;5045854;28;20439;-72
2022/01/23 15:55:52;;;;;;;7.55;4.97;;;5.60;83.80;;;;;;5027154;28;20036;-73
2022/01/23 15:58:18;;;;;;;8.38;5.00;;;5.50;83.60;;;;;;5052324;28;20069;-72
2022/01/23 16:00:44;;;;;;;10.03;5.10;;;5.50;83.80;;;;;;5029183;28;20119;-73
2022/01/23 16:03:10;;;;;;;6.30;4.10;;;5.50;83.80;;;;;;5059046;28;20060;-73
2022/01/23 16:05:35;;;;;;;8.77;4.30;;;5.50;83.70;;;;;;5037378;28;20284;-72
2022/01/23 16:08:02;;;;;;;7.57;4.87;;;5.50;83.70;;;;;;5036414;28;20123;-72
2022/01/23 16:10:28;;;;;;;9.00;5.18;;;5.40;83.80;;;;;;5035745;28;20445;-73
2022/01/23 16:12:54;;;;;;;8.00;4.95;;;5.40;83.80;;;;;;5057873;28;20560;-73
2022/01/23 16:15:21;;;;;;;8.77;5.57;;;5.40;84.00;;;;;;5057165;28;20067;-72
2022/01/23 16:17:48;;;;;;;9.38;5.80;;;5.40;84.00;;;;;;5043359;28;20049;-73
2022/01/23 16:20:14;;;;;;;8.63;5.22;;;5.40;84.00;;;;;;5032896;28;20414;-72
2022/01/23 16:22:41;;;;;;;7.60;4.75;;;5.40;84.00;;;;;;5035488;28;20070;-72
2022/01/23 16:25:10;;;;;;;9.00;5.03;;;5.40;83.90;;;;;;5041084;28;20135;-72
2022/01/23 16:27:35;;;;;;;7.85;4.70;;;5.40;83.70;;;;;;5050983;28;20044;-72
2022/01/23 16:30:01;;;;;;;6.93;4.20;;;5.40;83.70;;;;;;5052960;28;20463;-72
2022/01/23 16:32:27;;;;;;;7.13;4.70;;;5.40;83.90;;;;;;5035944;28;20076;-72
2022/01/23 16:34:53;;;;;;;7.97;5.07;;;5.40;83.70;;;;;;5037740;28;20123;-72
2022/01/23 16:37:18;;;;;;;8.60;5.50;;;5.30;83.70;;;;;;5034576;28;20049;-72